Time;durP1;ratioP1;P1;durP2;ratioP2;P2;SDS_P1;SDS_P2;PMS_P1;PMS_P2;Temp;Humidity;BMP_temperature;BMP_pressure;BME280_temperature;BME280_humidity;BME280_pressure;Samples;Min_cycle;Max_cycle;Signal;HPM_P1;HPM_P2
2023/04/16 00:01:02;;;;;;;15.10;10.40;;;11.90;93.30;;;;;;5086592;28;20962;-63
2023/04/16 00:03:28;;;;;;;13.73;9.40;;;11.80;93.20;;;;;;5071878;28;20474;-62
2023/04/16 00:06:52;;;;;;;22.30;12.87;;;11.80;93.20;;;;;;5057369;28;21331;-63
2023/04/16 00:09:19;;;;;;;16.57;9.80;;;11.70;93.20;;;;;;5088857;28;20487;-63
2023/04/16 00:11:46;;;;;;;14.57;7.87;;;11.80;93.20;;;;;;5089719;28;20485;-62
2023/04/16 00:14:14;;;;;;;9.40;7.53;;;11.80;93.30;;;;;;5081356;28;21161;-63
2023/04/16 00:16:41;;;;;;;16.27;9.60;;;12.00;93.40;;;;;;5087955;28;20482;-63
2023/04/16 00:19:08;;;;;;;19.00;8.57;;;11.90;93.30;;;;;;5086286;28;20535;-62
2023/04/16 00:21:34;;;;;;;14.57;9.00;;;11.90;93.30;;;;;;5087785;28;20469;-63
2023/04/16 00:24:01;;;;;;;17.80;10.40;;;11.90;93.30;;;;;;5086553;28;20556;-62
2023/04/16 00:26:28;;;;;;;21.90;10.30;;;12.00;93.20;;;;;;5064354;28;20473;-62
2023/04/16 00:28:54;;;;;;;22.33;12.20;;;11.90;93.10;;;;;;5086001;28;20466;-62
2023/04/16 00:31:28;;;;;;;12.53;7.27;;;11.90;93.10;;;;;;5088211;28;20501;-62
2023/04/16 00:33:55;;;;;;;17.20;9.90;;;11.90;93.10;;;;;;5084183;28;20564;-63
2023/04/16 00:36:23;;;;;;;15.37;9.10;;;11.80;93.10;;;;;;5084849;28;20506;-62
2023/04/16 00:38:50;;;;;;;19.77;10.13;;;11.80;93.10;;;;;;5084779;28;20478;-63
2023/04/16 00:41:17;;;;;;;18.20;8.83;;;11.80;93.10;;;;;;5080243;28;20470;-63
2023/04/16 00:43:44;;;;;;;16.23;9.50;;;11.80;93.20;;;;;;5073356;28;20479;-62
2023/04/16 00:46:11;;;;;;;14.23;8.60;;;11.80;93.20;;;;;;5086106;28;20481;-63
2023/04/16 00:48:41;;;;;;;21.77;10.50;;;11.80;93.30;;;;;;5086794;28;20466;-63
2023/04/16 00:51:08;;;;;;;16.80;9.50;;;11.80;93.20;;;;;;5085211;28;20465;-62
2023/04/16 00:53:35;;;;;;;15.43;8.80;;;11.80;93.30;;;;;;5084023;28;20473;-63
2023/04/16 00:56:04;;;;;;;27.37;11.53;;;11.80;93.30;;;;;;5068444;28;20481;-62
2023/04/16 00:58:31;;;;;;;17.70;9.17;;;11.80;93.40;;;;;;5082033;28;20830;-63
2023/04/16 01:00:57;;;;;;;24.73;9.40;;;11.80;93.20;;;;;;5072536;28;20849;-62
2023/04/16 01:03:27;;;;;;;13.80;8.17;;;11.70;93.30;;;;;;5075911;28;20488;-62
2023/04/16 01:05:56;;;;;;;17.23;8.77;;;11.70;93.30;;;;;;5075281;28;20482;-62
2023/04/16 01:08:23;;;;;;;21.90;8.83;;;11.60;93.40;;;;;;5086004;28;20478;-63
2023/04/16 01:10:49;;;;;;;20.77;9.67;;;11.60;93.40;;;;;;5060229;28;20478;-62
2023/04/16 01:13:16;;;;;;;11.70;7.07;;;11.50;93.50;;;;;;5070625;28;20486;-63
2023/04/16 01:15:43;;;;;;;16.93;7.00;;;11.50;93.60;;;;;;5072774;28;20485;-63
2023/04/16 01:18:14;;;;;;;18.00;9.70;;;11.50;93.60;;;;;;5082795;28;20753;-62
2023/04/16 01:20:42;;;;;;;16.90;8.90;;;11.60;93.70;;;;;;5082872;28;20470;-62
2023/04/16 01:23:10;;;;;;;23.60;9.47;;;11.60;93.70;;;;;;5085203;28;20474;-62
2023/04/16 01:25:37;;;;;;;16.43;9.00;;;11.60;93.60;;;;;;5075424;28;21118;-62
2023/04/16 01:28:04;;;;;;;27.07;12.40;;;11.60;93.60;;;;;;5085370;28;20477;-62
2023/04/16 01:30:30;;;;;;;19.80;8.90;;;11.60;93.50;;;;;;5081452;28;20490;-62
2023/04/16 01:32:57;;;;;;;25.37;11.27;;;11.60;93.60;;;;;;5082479;28;20477;-62
2023/04/16 01:35:24;;;;;;;18.30;9.37;;;11.60;93.60;;;;;;5064639;28;20569;-62
2023/04/16 01:37:52;;;;;;;23.07;10.60;;;11.60;93.60;;;;;;5083701;28;21331;-62
2023/04/16 01:40:19;;;;;;;17.20;9.40;;;11.60;93.60;;;;;;5083129;28;20483;-62
2023/04/16 01:42:46;;;;;;;25.03;8.70;;;11.60;93.60;;;;;;5080629;28;21060;-62
2023/04/16 01:45:13;;;;;;;19.30;8.50;;;11.70;93.50;;;;;;5084550;28;20477;-62
2023/04/16 01:47:40;;;;;;;25.27;10.83;;;11.70;93.40;;;;;;5056908;28;20486;-63
2023/04/16 01:50:08;;;;;;;23.83;11.77;;;11.70;93.50;;;;;;5074718;28;20486;-62
2023/04/16 01:52:34;;;;;;;22.73;9.73;;;11.70;93.60;;;;;;5073116;28;20477;-62
2023/04/16 01:55:02;;;;;;;22.20;10.83;;;11.70;93.50;;;;;;5084304;28;20465;-62
2023/04/16 01:57:29;;;;;;;21.47;11.03;;;11.70;93.50;;;;;;5061548;28;20486;-62
2023/04/16 01:59:56;;;;;;;22.10;10.10;;;11.70;93.50;;;;;;5076329;28;21101;-62
2023/04/16 02:02:26;;;;;;;19.90;10.27;;;11.70;93.50;;;;;;5087332;28;20478;-63
2023/04/16 02:04:54;;;;;;;19.67;10.70;;;;;;;;;;5083046;28;20821;-62
2023/04/16 02:07:21;;;;;;;18.77;10.40;;;11.60;93.50;;;;;;5073975;28;20557;-63
2023/04/16 02:09:49;;;;;;;16.57;8.80;;;11.60;93.60;;;;;;5091427;28;20470;-62
2023/04/16 02:12:17;;;;;;;14.30;7.90;;;11.50;93.70;;;;;;5084792;28;20853;-62
2023/04/16 02:14:44;;;;;;;16.27;9.23;;;11.50;93.60;;;;;;5087028;28;20476;-62
2023/04/16 02:17:10;;;;;;;10.87;6.97;;;11.50;93.70;;;;;;5061225;28;20474;-62
2023/04/16 02:19:37;;;;;;;16.43;9.43;;;11.50;93.80;;;;;;5080404;28;20506;-63
2023/04/16 02:22:04;;;;;;;22.03;11.23;;;11.50;93.80;;;;;;5077048;28;20482;-62
2023/04/16 02:24:31;;;;;;;15.40;8.60;;;11.40;93.90;;;;;;5091189;28;21001;-62
2023/04/16 02:26:58;;;;;;;19.20;11.10;;;11.40;94.00;;;;;;5083241;28;21006;-62
2023/04/16 02:29:26;;;;;;;11.80;8.10;;;11.40;93.80;;;;;;5086730;28;20483;-62
2023/04/16 02:31:52;;;;;;;11.73;7.67;;;11.40;93.90;;;;;;5086466;28;20485;-62
2023/04/16 02:34:19;;;;;;;13.63;8.10;;;11.50;94.00;;;;;;5094102;28;20492;-62
2023/04/16 02:36:46;;;;;;;12.80;8.00;;;11.40;94.00;;;;;;5095774;28;20559;-63
2023/04/16 02:39:13;;;;;;;12.67;7.77;;;11.40;94.10;;;;;;5082232;28;20454;-62
2023/04/16 02:41:39;;;;;;;11.60;7.80;;;11.50;94.30;;;;;;5071640;28;20496;-62
2023/04/16 02:44:06;;;;;;;17.07;9.83;;;11.50;94.10;;;;;;5087767;28;21174;-63
2023/04/16 02:46:34;;;;;;;11.67;7.50;;;11.50;94.00;;;;;;5085671;28;20479;-62
2023/04/16 02:49:01;;;;;;;21.37;11.57;;;11.50;93.90;;;;;;5082210;28;20475;-62
2023/04/16 02:51:28;;;;;;;11.43;7.43;;;11.50;93.90;;;;;;5073592;28;20744;-62
2023/04/16 02:53:54;;;;;;;19.70;10.70;;;11.50;93.80;;;;;;5083632;28;20841;-63
2023/04/16 02:56:21;;;;;;;11.97;6.87;;;11.50;94.00;;;;;;5064787;28;20479;-62
2023/04/16 02:58:48;;;;;;;15.80;8.93;;;11.50;94.00;;;;;;5086335;28;20485;-62
2023/04/16 03:01:15;;;;;;;11.20;6.10;;;11.50;94.00;;;;;;5084461;28;20481;-62
2023/04/16 03:03:43;;;;;;;12.80;7.57;;;11.40;93.90;;;;;;5092616;28;20494;-62
2023/04/16 03:06:10;;;;;;;12.10;7.83;;;11.40;94.00;;;;;;5091551;28;20487;-62
2023/04/16 03:08:37;;;;;;;17.43;9.60;;;11.50;94.00;;;;;;5090711;28;20838;-62
2023/04/16 03:11:03;;;;;;;18.27;9.77;;;11.60;93.90;;;;;;5091474;28;20470;-62
2023/04/16 03:13:30;;;;;;;13.07;7.73;;;11.60;94.00;;;;;;5088273;28;20486;-62
2023/04/16 03:15:57;;;;;;;18.10;9.50;;;11.60;94.00;;;;;;5089397;28;21053;-62
2023/04/16 03:18:24;;;;;;;15.93;8.53;;;;;;;;;;5087228;28;21009;-62
2023/04/16 03:20:53;;;;;;;15.10;8.60;;;11.60;93.80;;;;;;5083062;28;20835;-62
2023/04/16 03:23:20;;;;;;;14.23;7.47;;;11.60;93.80;;;;;;5083683;28;20482;-62
2023/04/16 03:25:47;;;;;;;13.90;7.90;;;11.60;94.00;;;;;;5088103;28;20483;-62
2023/04/16 03:28:13;;;;;;;13.97;7.63;;;11.60;93.90;;;;;;5087358;28;21065;-62
2023/04/16 03:30:40;;;;;;;15.20;8.30;;;10.10;93.20;;;;;;5082343;28;20469;-62
2023/04/16 03:33:07;;;;;;;22.30;9.70;;;11.50;93.90;;;;;;5088053;28;20477;-62
2023/04/16 03:35:34;;;;;;;14.70;8.37;;;11.40;93.90;;;;;;5065249;28;21383;-63
2023/04/16 03:38:02;;;;;;;22.87;11.10;;;11.40;94.00;;;;;;5087668;28;21717;-62
2023/04/16 03:40:28;;;;;;;17.87;9.33;;;11.40;94.10;;;;;;5089742;28;20535;-62
2023/04/16 03:42:55;;;;;;;20.30;10.33;;;11.40;94.10;;;;;;5077089;28;20478;-62
2023/04/16 03:45:22;;;;;;;16.77;8.57;;;11.40;94.10;;;;;;5087396;28;20498;-62
2023/04/16 03:47:51;;;;;;;19.80;12.23;;;11.30;94.10;;;;;;5086401;28;20781;-62
2023/04/16 03:50:18;;;;;;;19.57;10.43;;;11.40;94.30;;;;;;5089112;28;20820;-62
2023/04/16 03:52:45;;;;;;;17.47;10.03;;;11.30;94.20;;;;;;5091151;28;20477;-62
2023/04/16 03:55:14;;;;;;;19.50;9.47;;;11.30;94.30;;;;;;5076242;28;20497;-62
2023/04/16 03:57:40;;;;;;;19.23;10.77;;;11.30;94.30;;;;;;5081585;28;20474;-63
2023/04/16 04:00:08;;;;;;;17.40;9.63;;;11.30;94.30;;;;;;5088576;28;20549;-62
2023/04/16 04:02:35;;;;;;;13.60;8.63;;;11.20;94.30;;;;;;5088480;28;20764;-63
2023/04/16 04:05:02;;;;;;;28.00;12.80;;;11.20;94.30;;;;;;5046684;28;20561;-62
2023/04/16 04:07:28;;;;;;;17.27;9.10;;;11.20;94.20;;;;;;5080842;28;20482;-62
2023/04/16 04:09:55;;;;;;;14.10;8.90;;;11.20;94.30;;;;;;5073073;28;20961;-62
2023/04/16 04:12:23;;;;;;;17.20;9.93;;;11.20;94.40;;;;;;5084761;28;20489;-62
2023/04/16 04:14:50;;;;;;;15.63;8.57;;;11.20;94.30;;;;;;5079696;28;21278;-62
2023/04/16 04:17:16;;;;;;;20.00;9.97;;;11.20;94.50;;;;;;5076018;28;20690;-62
2023/04/16 04:19:43;;;;;;;18.67;10.27;;;11.20;94.30;;;;;;5074085;28;20784;-62
2023/04/16 04:22:10;;;;;;;14.80;8.90;;;11.20;94.40;;;;;;5057416;28;20541;-62
2023/04/16 04:24:36;;;;;;;11.70;6.90;;;11.20;94.40;;;;;;5072798;28;20494;-62
2023/04/16 04:27:03;;;;;;;16.80;9.90;;;11.30;94.50;;;;;;5088108;28;20469;-62
2023/04/16 04:29:31;;;;;;;15.20;9.50;;;11.20;94.40;;;;;;5078768;28;20489;-63
2023/04/16 04:31:58;;;;;;;13.20;8.30;;;11.20;94.50;;;;;;5079792;28;21024;-62
2023/04/16 04:34:25;;;;;;;13.10;7.43;;;11.20;94.60;;;;;;5081967;28;20512;-62
2023/04/16 04:36:51;;;;;;;11.07;7.20;;;11.10;94.60;;;;;;5074661;28;20481;-62
2023/04/16 04:39:20;;;;;;;22.27;10.37;;;11.20;94.70;;;;;;5066983;28;20478;-62
2023/04/16 04:41:47;;;;;;;16.40;9.13;;;11.20;94.50;;;;;;5083050;28;20482;-62
2023/04/16 04:44:14;;;;;;;11.53;7.43;;;11.30;94.50;;;;;;5071612;28;20491;-62
2023/04/16 04:46:42;;;;;;;14.53;8.60;;;11.20;94.40;;;;;;5070116;28;20481;-62
2023/04/16 04:49:09;;;;;;;20.03;11.97;;;11.30;94.60;;;;;;5061620;28;21223;-62
2023/04/16 04:51:35;;;;;;;12.50;8.90;;;11.30;94.50;;;;;;5055753;28;20566;-62
2023/04/16 04:54:02;;;;;;;19.90;10.00;;;11.30;94.40;;;;;;5072153;28;20489;-62
2023/04/16 04:56:29;;;;;;;18.67;9.63;;;11.30;94.50;;;;;;5095397;28;20477;-62
2023/04/16 04:58:56;;;;;;;21.63;12.10;;;11.40;94.60;;;;;;5042000;28;20489;-62
2023/04/16 05:01:22;;;;;;;15.43;8.57;;;11.30;94.40;;;;;;5075811;28;20582;-62
2023/04/16 05:03:50;;;;;;;15.00;8.87;;;11.30;94.50;;;;;;5076561;28;21001;-62
2023/04/16 05:06:17;;;;;;;15.63;9.17;;;11.20;94.50;;;;;;5087222;28;20482;-62
2023/04/16 05:08:44;;;;;;;17.87;10.47;;;11.20;94.60;;;;;;5091714;28;20477;-62
2023/04/16 05:11:11;;;;;;;18.40;10.40;;;;;;;;;;5077411;28;20482;-63
2023/04/16 05:13:37;;;;;;;17.10;10.00;;;11.30;94.70;;;;;;5075103;28;20810;-62
2023/04/16 05:16:05;;;;;;;20.77;11.47;;;11.30;94.70;;;;;;5070526;28;20838;-62
2023/04/16 05:18:32;;;;;;;16.93;9.50;;;11.30;94.70;;;;;;5074676;28;20497;-62
2023/04/16 05:21:00;;;;;;;29.13;14.37;;;11.20;94.60;;;;;;5069821;28;20521;-62
2023/04/16 05:23:26;;;;;;;35.13;10.53;;;11.30;94.70;;;;;;5077969;28;20483;-62
2023/04/16 05:25:53;;;;;;;23.47;12.87;;;11.30;94.70;;;;;;5069240;28;20490;-62
2023/04/16 05:28:20;;;;;;;21.33;12.57;;;11.20;94.70;;;;;;5068919;28;20487;-62
2023/04/16 05:30:46;;;;;;;23.50;14.80;;;11.30;94.80;;;;;;5054020;28;20486;-61
2023/04/16 05:33:13;;;;;;;16.63;10.97;;;11.20;94.80;;;;;;5082544;28;20901;-62
2023/04/16 05:35:40;;;;;;;20.33;11.00;;;11.20;94.80;;;;;;5075560;28;20482;-62
2023/04/16 05:38:09;;;;;;;24.50;13.00;;;11.20;94.80;;;;;;5075077;28;20485;-62
2023/04/16 05:40:36;;;;;;;22.23;12.07;;;11.20;94.80;;;;;;5076773;28;20513;-62
2023/04/16 05:43:02;;;;;;;26.47;13.43;;;11.20;94.90;;;;;;5077260;28;20474;-62
2023/04/16 05:45:30;;;;;;;15.00;9.80;;;11.30;95.00;;;;;;5070472;28;20478;-62
2023/04/16 05:47:56;;;;;;;24.57;12.47;;;11.30;94.90;;;;;;5060199;28;20466;-62
2023/04/16 05:50:23;;;;;;;29.93;13.03;;;11.30;95.10;;;;;;5079886;28;20505;-62
2023/04/16 05:52:50;;;;;;;22.70;12.30;;;11.30;94.90;;;;;;5081198;28;20487;-62
2023/04/16 05:55:18;;;;;;;25.10;12.43;;;11.30;94.90;;;;;;5072936;28;20509;-62
2023/04/16 05:57:45;;;;;;;34.23;15.47;;;11.30;94.90;;;;;;5082444;28;20509;-62
2023/04/16 06:00:12;;;;;;;43.00;13.00;;;11.40;94.90;;;;;;5068281;28;20986;-62
2023/04/16 06:02:39;;;;;;;26.27;12.90;;;11.40;95.00;;;;;;5074426;28;20905;-62
2023/04/16 06:05:06;;;;;;;25.23;12.60;;;11.30;95.00;;;;;;5080780;28;20469;-62
2023/04/16 06:07:33;;;;;;;37.07;13.13;;;11.30;94.90;;;;;;5062609;28;20826;-62
2023/04/16 06:09:59;;;;;;;23.60;13.13;;;11.40;95.00;;;;;;5076679;28;20481;-63
2023/04/16 06:12:27;;;;;;;28.57;13.90;;;11.40;94.90;;;;;;5055147;28;20994;-62
2023/04/16 06:14:55;;;;;;;31.27;12.40;;;11.40;95.00;;;;;;5075572;28;20501;-62
2023/04/16 06:17:22;;;;;;;31.33;14.87;;;11.80;95.20;;;;;;5080104;28;20586;-62
2023/04/16 06:19:48;;;;;;;25.20;12.47;;;11.40;95.10;;;;;;5076091;28;20531;-62
2023/04/16 06:22:23;;;;;;;27.50;12.40;;;11.40;95.10;;;;;;5080217;28;20483;-62
2023/04/16 06:24:50;;;;;;;25.37;12.37;;;11.50;95.20;;;;;;5080473;28;20465;-62
2023/04/16 06:27:17;;;;;;;23.57;10.83;;;11.40;95.10;;;;;;5097366;28;20481;-62
2023/04/16 06:29:45;;;;;;;31.03;13.27;;;11.40;95.30;;;;;;5066562;28;20920;-62
2023/04/16 06:32:12;;;;;;;29.00;15.00;;;11.50;95.20;;;;;;5080336;28;20838;-62
2023/04/16 06:34:39;;;;;;;31.90;15.10;;;11.50;95.20;;;;;;5052829;28;20862;-62
2023/04/16 06:37:06;;;;;;;30.80;12.97;;;11.60;95.20;;;;;;5063128;28;20833;-62
2023/04/16 06:39:33;;;;;;;19.77;11.80;;;11.60;95.10;;;;;;5074203;28;20482;-62
2023/04/16 06:42:00;;;;;;;34.77;16.27;;;11.70;95.30;;;;;;5066407;28;20475;-62
2023/04/16 06:44:27;;;;;;;30.07;13.20;;;11.70;95.20;;;;;;5076178;28;20930;-62
2023/04/16 06:46:55;;;;;;;29.30;14.77;;;11.70;95.10;;;;;;5077185;28;21172;-62
2023/04/16 06:49:21;;;;;;;26.67;12.70;;;11.80;95.20;;;;;;5074031;28;20529;-62
2023/04/16 06:51:48;;;;;;;30.83;13.13;;;11.80;95.00;;;;;;5090864;28;21023;-63
2023/04/16 06:54:19;;;;;;;34.07;16.60;;;11.70;95.00;;;;;;5081355;28;20485;-62
2023/04/16 06:56:45;;;;;;;32.43;15.67;;;11.70;95.00;;;;;;5095894;28;21049;-62
2023/04/16 06:59:12;;;;;;;36.70;15.50;;;11.80;95.10;;;;;;5073075;28;20483;-62
2023/04/16 07:01:40;;;;;;;35.67;15.70;;;11.80;95.10;;;;;;5076066;28;20485;-62
2023/04/16 07:04:08;;;;;;;38.67;18.33;;;;;;;;;;5065716;28;20471;-62
2023/04/16 07:06:35;;;;;;;31.73;15.30;;;11.80;95.30;;;;;;5099303;28;20477;-62
2023/04/16 07:09:02;;;;;;;49.43;19.90;;;11.80;95.20;;;;;;5087239;28;20478;-62
2023/04/16 07:11:30;;;;;;;41.10;16.40;;;11.90;95.10;;;;;;5093432;28;20496;-62
2023/04/16 07:13:57;;;;;;;43.93;17.27;;;11.90;95.20;;;;;;5067235;28;20906;-62
2023/04/16 07:16:24;;;;;;;28.90;14.33;;;11.90;95.00;;;;;;5066136;28;20540;-62
2023/04/16 07:18:51;;;;;;;38.33;16.73;;;11.80;95.00;;;;;;5047968;28;20506;-62
2023/04/16 07:21:19;;;;;;;37.43;16.80;;;11.80;95.00;;;;;;5074385;28;20985;-62
2023/04/16 07:23:46;;;;;;;34.80;15.97;;;11.80;95.00;;;;;;5093047;28;20963;-62
2023/04/16 07:26:13;;;;;;;30.50;14.33;;;11.80;95.00;;;;;;5091450;28;20482;-62
2023/04/16 07:28:40;;;;;;;29.17;14.30;;;11.80;95.00;;;;;;5090685;28;20477;-62
2023/04/16 07:31:06;;;;;;;41.23;17.43;;;11.80;95.10;;;;;;5087269;28;21251;-63
2023/04/16 07:33:33;;;;;;;32.70;15.60;;;11.70;95.00;;;;;;5071434;28;20678;-62
2023/04/16 07:36:00;;;;;;;32.93;16.63;;;11.70;94.90;;;;;;5091966;28;20481;-61
2023/04/16 07:38:28;;;;;;;28.63;14.00;;;11.70;95.00;;;;;;5089178;28;20474;-62
2023/04/16 07:40:55;;;;;;;33.53;15.07;;;11.70;94.90;;;;;;5083217;28;20541;-62
2023/04/16 07:43:22;;;;;;;27.70;14.33;;;11.80;94.90;;;;;;5077499;28;20489;-62
2023/04/16 07:45:48;;;;;;;26.60;12.30;;;11.80;94.90;;;;;;5096417;28;22251;-62
2023/04/16 07:48:15;;;;;;;35.17;17.10;;;11.70;94.80;;;;;;5073237;28;20501;-62
2023/04/16 07:50:43;;;;;;;32.83;15.80;;;11.70;94.90;;;;;;5073768;28;20479;-62
2023/04/16 07:53:09;;;;;;;28.03;14.60;;;11.70;95.00;;;;;;5063923;28;20721;-62
2023/04/16 07:55:37;;;;;;;25.77;13.90;;;11.70;94.80;;;;;;5078966;28;21051;-62
2023/04/16 07:58:05;;;;;;;28.43;14.57;;;11.70;94.90;;;;;;5087252;28;20485;-62
2023/04/16 08:00:32;;;;;;;25.60;13.87;;;11.80;94.90;;;;;;5073212;28;20932;-62
2023/04/16 08:02:58;;;;;;;23.70;14.20;;;11.80;94.80;;;;;;5062454;28;20470;-62
2023/04/16 08:05:25;;;;;;;24.03;13.60;;;11.90;94.90;;;;;;5078219;28;20481;-62
2023/04/16 08:07:52;;;;;;;24.67;13.63;;;11.90;94.80;;;;;;5075730;28;20478;-62
2023/04/16 08:10:19;;;;;;;23.07;13.77;;;12.00;94.80;;;;;;5077006;28;21055;-62
2023/04/16 08:12:47;;;;;;;21.17;11.63;;;12.00;94.50;;;;;;5092952;28;20482;-62
2023/04/16 08:15:13;;;;;;;22.43;12.37;;;12.00;94.70;;;;;;5068024;28;20908;-62
2023/04/16 08:17:40;;;;;;;23.73;13.50;;;12.00;94.50;;;;;;5078151;28;20478;-62
2023/04/16 08:20:08;;;;;;;23.93;13.57;;;12.00;94.30;;;;;;5078448;28;20483;-62
2023/04/16 08:22:34;;;;;;;12.50;8.93;;;12.00;94.20;;;;;;5084814;28;20513;-62
2023/04/16 08:25:01;;;;;;;23.23;13.83;;;12.10;94.50;;;;;;5086372;28;20481;-63
2023/04/16 08:27:28;;;;;;;24.37;11.83;;;12.10;94.30;;;;;;5077812;28;20477;-62
2023/04/16 08:29:56;;;;;;;23.63;12.90;;;12.20;94.50;;;;;;5076334;28;20487;-62
2023/04/16 08:32:23;;;;;;;23.03;13.07;;;12.30;94.40;;;;;;5070359;28;20478;-62
2023/04/16 08:34:50;;;;;;;26.10;13.37;;;12.30;94.10;;;;;;5075989;28;20489;-62
2023/04/16 08:37:16;;;;;;;18.73;12.10;;;12.30;94.40;;;;;;5078724;28;20463;-62
2023/04/16 08:39:43;;;;;;;21.10;12.63;;;12.40;94.20;;;;;;5070418;28;20471;-62
2023/04/16 08:42:18;;;;;;;20.40;12.13;;;12.40;94.00;;;;;;5070770;28;20823;-62
2023/04/16 08:44:49;;;;;;;23.40;12.97;;;12.40;94.00;;;;;;5073490;28;20895;-63
2023/04/16 08:47:17;;;;;;;24.47;11.80;;;12.30;93.90;;;;;;5083334;28;20656;-62
2023/04/16 08:49:45;;;;;;;19.33;11.53;;;12.30;93.90;;;;;;5066797;28;20462;-62
2023/04/16 08:52:18;;;;;;;21.30;12.37;;;12.30;93.90;;;;;;5098046;28;20935;-62
2023/04/16 08:55:02;;;;;;;21.10;12.70;;;12.40;93.90;;;;;;5078590;28;20481;-62
2023/04/16 08:57:38;;;;;;;25.33;13.03;;;12.50;94.00;;;;;;5061570;28;20860;-62
2023/04/16 09:00:08;;;;;;;32.97;12.53;;;12.60;94.10;;;;;;5056348;28;20478;-62
2023/04/16 09:02:37;;;;;;;19.57;11.93;;;12.70;94.20;;;;;;5068818;28;20523;-62
2023/04/16 09:05:07;;;;;;;22.60;11.97;;;12.70;94.00;;;;;;5061625;28;20489;-62
2023/04/16 09:07:34;;;;;;;25.40;13.70;;;13.20;94.30;;;;;;5073362;28;21056;-62
2023/04/16 09:10:01;;;;;;;41.87;22.77;;;12.70;94.10;;;;;;5080243;28;20482;-62
2023/04/16 09:12:28;;;;;;;21.40;12.00;;;12.60;93.90;;;;;;5055630;28;20481;-62
2023/04/16 09:14:58;;;;;;;20.83;12.27;;;12.70;94.10;;;;;;5080553;28;20478;-62
2023/04/16 09:17:25;;;;;;;19.00;11.00;;;12.70;93.80;;;;;;5070177;28;20481;-62
2023/04/16 09:19:54;;;;;;;23.23;11.07;;;12.80;93.80;;;;;;5073907;28;20482;-62
2023/04/16 09:22:21;;;;;;;30.30;9.57;;;12.90;93.70;;;;;;5074733;28;21087;-63
2023/04/16 09:24:47;;;;;;;17.10;10.77;;;12.90;93.90;;;;;;5075757;28;20866;-62
2023/04/16 09:27:15;;;;;;;21.63;10.37;;;12.90;93.70;;;;;;5071845;28;20485;-63
2023/04/16 09:29:42;;;;;;;20.43;11.77;;;12.90;93.60;;;;;;5070983;28;20486;-62
2023/04/16 09:32:10;;;;;;;19.47;11.80;;;13.00;93.60;;;;;;5078063;28;20864;-62
2023/04/16 09:34:57;;;;;;;23.73;10.90;;;13.00;93.50;;;;;;5077430;28;20478;-62
2023/04/16 09:37:24;;;;;;;41.73;11.13;;;13.00;93.20;;;;;;5074389;28;20532;-62
2023/04/16 09:39:56;;;;;;;22.60;11.20;;;13.10;93.50;;;;;;5077192;28;20489;-62
2023/04/16 09:42:26;;;;;;;14.00;10.40;;;13.10;93.40;;;;;;5078373;28;20496;-63
2023/04/16 09:44:53;;;;;;;16.37;11.13;;;13.10;93.40;;;;;;5090195;28;20488;-63
2023/04/16 09:47:21;;;;;;;16.07;10.00;;;13.10;93.60;;;;;;5073363;28;20493;-62
2023/04/16 09:49:47;;;;;;;15.90;10.17;;;13.10;93.30;;;;;;5082839;28;20844;-62
2023/04/16 09:52:17;;;;;;;16.20;9.87;;;13.20;93.60;;;;;;5054747;28;20557;-62
2023/04/16 09:54:47;;;;;;;19.10;10.33;;;13.20;93.20;;;;;;5065594;28;20492;-63
2023/04/16 09:57:14;;;;;;;14.90;9.77;;;13.30;93.40;;;;;;5068018;28;20482;-62
2023/04/16 09:59:41;;;;;;;19.73;10.00;;;13.30;93.20;;;;;;5045098;28;20621;-63
2023/04/16 10:02:08;;;;;;;18.60;11.20;;;13.40;93.50;;;;;;5061111;28;20470;-63
2023/04/16 10:04:46;;;;;;;19.40;10.63;;;13.40;93.30;;;;;;5041938;28;20471;-63
2023/04/16 10:07:13;;;;;;;20.50;10.57;;;13.30;93.00;;;;;;5071390;28;20494;-62
2023/04/16 10:09:41;;;;;;;16.43;9.37;;;13.40;93.10;;;;;;5063238;28;20993;-62
2023/04/16 10:12:08;;;;;;;22.93;11.93;;;13.40;92.60;;;;;;5067314;28;20468;-63
2023/04/16 10:14:35;;;;;;;17.07;9.87;;;13.40;92.60;;;;;;5082230;28;20855;-62
2023/04/16 10:17:03;;;;;;;32.60;16.10;;;13.30;92.90;;;;;;5074620;28;20527;-63
2023/04/16 10:19:31;;;;;;;28.57;11.47;;;;;;;;;;5026112;28;20482;-63
2023/04/16 10:21:58;;;;;;;26.07;13.73;;;14.00;93.40;;;;;;5081019;28;20578;-63
2023/04/16 10:24:26;;;;;;;23.77;13.90;;;13.20;93.10;;;;;;5091466;28;20475;-63
2023/04/16 10:26:55;;;;;;;20.50;10.63;;;13.20;92.80;;;;;;5075574;28;20691;-62
2023/04/16 10:29:23;;;;;;;19.17;10.50;;;13.20;93.00;;;;;;5075742;28;20486;-62
2023/04/16 10:31:50;;;;;;;24.93;11.33;;;13.20;92.90;;;;;;5061473;28;20471;-62
2023/04/16 10:34:18;;;;;;;17.33;10.47;;;13.20;92.50;;;;;;5080218;28;20838;-62
2023/04/16 10:36:48;;;;;;;20.00;11.27;;;13.20;92.80;;;;;;5070042;28;20474;-62
2023/04/16 10:39:18;;;;;;;18.90;10.67;;;13.10;92.70;;;;;;5070532;28;20842;-63
2023/04/16 10:41:45;;;;;;;28.03;10.83;;;13.20;93.20;;;;;;5087789;28;20462;-62
2023/04/16 10:44:16;;;;;;;20.57;12.47;;;13.10;93.00;;;;;;5083830;28;20486;-62
2023/04/16 10:46:44;;;;;;;26.57;16.03;;;13.20;93.30;;;;;;5059143;28;20478;-62
2023/04/16 10:49:16;;;;;;;21.77;12.40;;;13.20;93.30;;;;;;5084692;28;20648;-62
2023/04/16 10:51:53;;;;;;;25.67;13.67;;;13.20;93.10;;;;;;5101171;28;20544;-62
2023/04/16 10:54:24;;;;;;;26.73;11.60;;;13.30;93.60;;;;;;5067777;28;20484;-63
2023/04/16 10:56:51;;;;;;;21.53;11.60;;;13.20;93.00;;;;;;5078734;28;20879;-62
2023/04/16 10:59:20;;;;;;;20.47;11.73;;;;;;;;;;5080930;28;20578;-62
2023/04/16 11:01:48;;;;;;;22.07;11.93;;;13.20;93.10;;;;;;5087972;28;20481;-61
2023/04/16 11:04:33;;;;;;;20.57;10.87;;;13.20;93.00;;;;;;5094936;28;20489;-62
2023/04/16 11:07:02;;;;;;;30.47;12.40;;;13.20;93.50;;;;;;5092059;28;20482;-63
2023/04/16 11:09:51;;;;;;;19.13;10.70;;;13.20;93.10;;;;;;5087826;28;21010;-62
2023/04/16 11:12:19;;;;;;;19.23;11.13;;;13.10;92.80;;;;;;5084592;28;20493;-62
2023/04/16 11:14:50;;;;;;;30.47;12.17;;;13.10;93.10;;;;;;5059381;28;20470;-62
2023/04/16 11:17:17;;;;;;;20.23;10.53;;;13.20;93.00;;;;;;5056285;28;20474;-63
2023/04/16 11:19:44;;;;;;;20.13;11.20;;;13.20;92.90;;;;;;5054764;28;20487;-63
2023/04/16 11:22:13;;;;;;;17.73;9.57;;;13.20;93.20;;;;;;5073771;28;20476;-62
2023/04/16 11:24:40;;;;;;;15.83;9.73;;;13.40;93.20;;;;;;5068887;28;20478;-63
2023/04/16 11:27:07;;;;;;;24.30;13.00;;;13.50;93.30;;;;;;5090354;28;20802;-63
2023/04/16 11:29:33;;;;;;;18.30;10.57;;;13.60;92.90;;;;;;5079847;28;20872;-62
2023/04/16 11:32:02;;;;;;;40.43;13.67;;;13.70;93.10;;;;;;5058895;28;20503;-62
2023/04/16 11:34:28;;;;;;;21.60;11.53;;;13.80;92.60;;;;;;5064414;28;20855;-62
2023/04/16 11:36:55;;;;;;;22.67;12.67;;;13.80;92.90;;;;;;5091508;28;20819;-62
2023/04/16 11:39:23;;;;;;;17.27;10.13;;;13.90;92.60;;;;;;5089020;28;20486;-62
2023/04/16 11:41:51;;;;;;;20.70;10.80;;;14.00;92.70;;;;;;5068769;28;20482;-62
2023/04/16 11:44:19;;;;;;;18.50;8.60;;;14.00;92.50;;;;;;5039921;28;20574;-62
2023/04/16 11:46:46;;;;;;;20.77;9.57;;;14.10;92.40;;;;;;5024623;28;20686;-63
2023/04/16 11:49:14;;;;;;;20.73;10.30;;;14.10;92.30;;;;;;5063832;28;20841;-62
2023/04/16 11:51:41;;;;;;;18.77;10.23;;;14.10;92.50;;;;;;5061087;28;21260;-63
2023/04/16 11:54:09;;;;;;;28.53;11.90;;;14.00;92.80;;;;;;5073896;28;20486;-62
2023/04/16 11:56:37;;;;;;;20.20;11.07;;;14.00;92.30;;;;;;5059705;28;20975;-62
2023/04/16 11:59:08;;;;;;;24.50;13.53;;;14.10;93.10;;;;;;5073350;28;23681;-63
2023/04/16 12:01:36;;;;;;;20.07;9.57;;;14.20;92.80;;;;;;5065517;28;20554;-63
2023/04/16 12:04:04;;;;;;;21.30;11.03;;;14.30;92.70;;;;;;5075037;28;20490;-63
2023/04/16 12:06:32;;;;;;;17.77;9.10;;;;;;;;;;5078940;28;20497;-63
2023/04/16 12:08:59;;;;;;;36.17;15.57;;;14.30;92.80;;;;;;5098531;28;20814;-63
2023/04/16 12:11:39;;;;;;;21.27;10.03;;;13.80;92.70;;;;;;5065182;28;21012;-62
2023/04/16 12:14:09;;;;;;;25.70;10.47;;;14.30;92.60;;;;;;5066599;28;20696;-63
2023/04/16 12:16:36;;;;;;;18.40;10.20;;;14.20;92.90;;;;;;5063027;28;20474;-63
2023/04/16 12:19:03;;;;;;;27.00;12.60;;;14.20;92.80;;;;;;5084314;28;20477;-63
2023/04/16 12:21:40;;;;;;;24.20;10.63;;;14.10;93.10;;;;;;5089393;28;20490;-63
2023/04/16 12:24:08;;;;;;;21.03;10.27;;;14.20;92.70;;;;;;5060554;28;20489;-62
2023/04/16 12:26:40;;;;;;;18.37;10.10;;;14.20;93.00;;;;;;5096159;28;21015;-62
2023/04/16 12:29:20;;;;;;;25.10;11.90;;;14.20;93.20;;;;;;5051755;28;20486;-63
2023/04/16 12:31:48;;;;;;;19.90;10.10;;;14.30;93.40;;;;;;5073765;28;20970;-62
2023/04/16 12:34:16;;;;;;;12.33;7.97;;;14.30;92.80;;;;;;5084359;28;20496;-63
2023/04/16 12:36:45;;;;;;;21.17;9.73;;;14.40;93.00;;;;;;5099185;28;20489;-62